AirNav   Air Wisconsin Up To $57,000 Bonus
 
 1330 users online  

05NH Stumpfield Heliport
Kensington, New Hampshire, USA

GOING TO KENSINGTON?


FAA INFORMATION EFFECTIVE 30 JANUARY 2020

Location

FAA Identifier: 05NH
Lat/Long: 42-55-25.9900N 070-57-05.2200W
42-55.433167N 070-57.087000W
42.9238861,-70.9514500
(estimated)
Elevation: 200 ft. / 61 m (estimated)
Variation: 16W (2000)
From city: 2 miles SE of KENSINGTON, NH
Time zone: UTC -5 (UTC -4 during Daylight Saving Time)
Zip code: 03833

Heliport Operations

Heliport use: Private use. Permission required prior to landing
Activation date: 11/2000
Control tower: no
ARTCC: BOSTON CENTER
FSS: BANGOR FLIGHT SERVICE STATION
Attendance: UNATNDD
Segmented circle: no

Heliport Communications

WX ASOS at LWM (15 nm SW): PHONE 978-687-8017

Nearby radio navigation aids

VOR radial/distance  VOR name  Freq  Var
PSMr225/11.0PEASE VOR/DME116.5016W
LWMr045/12.7LAWRENCE VOR/DME112.5015W
MHTr095/18.7MANCHESTER VOR/DME114.4015W
CONr138/32.6CONCORD VOR/DME112.9015W
ENEr223/33.5KENNEBUNK VOR/DME117.1017W
BOSr019/34.0BOSTON VOR/DME112.7016W

 
NDB name  Hdg/Dist  Freq  Var  ID
ROLLINS213/18.626016WESG . ... --.

Heliport Services

Runway Information

Helipad H1

Dimensions: 100 x 100 ft. / 30 x 30 m
Surface: turf
Traffic pattern: leftleft

Heliport Ownership and Management from official FAA records

Ownership: Privately-owned
Owner: C. DANIEL SWIFT
20 STUMPFIELD ROAD
KENSINGTON, NH 03833
Phone 603-778-0595
Manager: C. DANIEL SWIFT
20 STUMPFIELD ROAD
KENSINGTON, NH 03833
Phone 603-778-0595

Additional Remarks

FOR CD CTC BOSTON APCH AT 603-594-5551.

Instrument Procedures

There are no published instrument procedures at 05NH.

Some nearby airports with instrument procedures:

KPSM - Portsmouth International Airport at Pease (11 nm NE)
KLWM - Lawrence Municipal Airport (15 nm SW)
3B4 - Littlebrook Air Park (15 nm NE)
KBVY - Beverly Regional Airport (20 nm S)
KMHT - Manchester Airport (21 nm W)
 
Loc | Ops | Rwys | IFR | FBO | Links
Com | Nav | Svcs | Stats | Notes
Area around 05NH (Stumpfield Heliport)
 
Road maps at: MapQuest Bing Google
 
Aerial photo
No photo
 
Sectional chart

 
Airport distance calculator
Flying to Stumpfield Heliport? Find the distance to fly.

From to 05NH

Sunrise and sunset
Times for 17-Feb-2020
 Local
(UTC-5)
 Zulu
(UTC)
Morning civil twilight06:1011:10
Sunrise06:3911:39
Sunset17:1622:16
Evening civil twilight17:4522:45

Current date and time
Zulu (UTC)  17-Feb-2020 15:37:46
Local (UTC-5)  17-Feb-2020 10:37:46
 
METAR
KPSM 
10nm NE 
171456Z 31012KT 10SM FEW045 03/M07 A3016 RMK AO2A SLP217 T00271072 51022
KLWM 
15nm SW 
171454Z 30010G17KT 10SM CLR 03/M07 A3021 RMK AO2 SLP230 T00281067 51020
KBVY 
20nm S 
171453Z 29011G20KT 10SM CLR 04/M07 A3019 RMK AO2 SLP220 T00391072 50021
TAF
KPSM 
10nm NE 
171132Z 1712/1812 VRB04KT P6SM SCT150 FM171400 28005KT P6SM SKC FM171800 30009G18KT P6SM SKC FM180000 VRB04KT P6SM SKC
NOTAMs
Click for the latest NOTAMs
NOTAMs are issued by the DoD/FAA and will open in a separate window not controlled by AirNav.

 

 
 

Would you like to see your business listed on this page?

 If your business provides an interesting product or service to pilots, flight crews, aircraft, or users of the Stumpfield Heliport, you should consider listing it here.  To start the listing process, click on the button below
 
Add a business
 

Other Pages about Stumpfield Heliport

Update a link
 
Copyright © AirNav, LLC. All rights reserved. Privacy Policy  Contact